sensor_id;sensor_type;location;lat;lon;timestamp;temperature;humidity
698;DHT22;331;48.414;9.938;2022-08-19T00:02:13;21.10;90.40
698;DHT22;331;48.414;9.938;2022-08-19T00:04:40;21.10;90.40
698;DHT22;331;48.414;9.938;2022-08-19T00:07:07;21.00;90.40
698;DHT22;331;48.414;9.938;2022-08-19T00:09:33;21.00;90.60
698;DHT22;331;48.414;9.938;2022-08-19T00:12:00;21.00;90.60
698;DHT22;331;48.414;9.938;2022-08-19T00:14:28;21.00;90.60
698;DHT22;331;48.414;9.938;2022-08-19T00:16:56;21.00;90.60
698;DHT22;331;48.414;9.938;2022-08-19T00:19:26;21.00;90.60
698;DHT22;331;48.414;9.938;2022-08-19T00:21:53;21.00;90.80
698;DHT22;331;48.414;9.938;2022-08-19T00:24:21;20.90;90.70
698;DHT22;331;48.414;9.938;2022-08-19T00:26:50;20.90;90.80
698;DHT22;331;48.414;9.938;2022-08-19T00:29:19;20.90;90.70
698;DHT22;331;48.414;9.938;2022-08-19T00:31:47;20.90;90.80
698;DHT22;331;48.414;9.938;2022-08-19T00:34:15;20.90;90.80
698;DHT22;331;48.414;9.938;2022-08-19T00:36:43;20.90;90.80
698;DHT22;331;48.414;9.938;2022-08-19T00:39:10;20.80;90.80
698;DHT22;331;48.414;9.938;2022-08-19T00:41:41;20.80;90.80
698;DHT22;331;48.414;9.938;2022-08-19T00:44:12;20.80;90.80
698;DHT22;331;48.414;9.938;2022-08-19T00:46:43;20.80;90.80
698;DHT22;331;48.414;9.938;2022-08-19T00:49:12;20.80;90.80
698;DHT22;331;48.414;9.938;2022-08-19T00:51:41;20.80;90.80
698;DHT22;331;48.414;9.938;2022-08-19T00:54:11;20.70;90.70
698;DHT22;331;48.414;9.938;2022-08-19T00:56:38;20.80;90.70
698;DHT22;331;48.414;9.938;2022-08-19T00:59:05;20.70;90.70
698;DHT22;331;48.414;9.938;2022-08-19T01:01:34;20.70;90.70
698;DHT22;331;48.414;9.938;2022-08-19T01:04:01;20.70;90.70
698;DHT22;331;48.414;9.938;2022-08-19T01:06:28;20.70;90.70
698;DHT22;331;48.414;9.938;2022-08-19T01:08:57;20.70;90.80
698;DHT22;331;48.414;9.938;2022-08-19T01:11:26;20.70;90.80
698;DHT22;331;48.414;9.938;2022-08-19T01:13:54;20.60;90.80
698;DHT22;331;48.414;9.938;2022-08-19T01:16:22;20.60;90.70
698;DHT22;331;48.414;9.938;2022-08-19T01:18:49;20.60;90.70
698;DHT22;331;48.414;9.938;2022-08-19T01:21:18;20.60;90.80
698;DHT22;331;48.414;9.938;2022-08-19T01:23:49;20.60;90.90
698;DHT22;331;48.414;9.938;2022-08-19T01:26:17;20.60;90.90
698;DHT22;331;48.414;9.938;2022-08-19T01:28:45;20.60;91.00
698;DHT22;331;48.414;9.938;2022-08-19T01:31:12;20.60;91.00
698;DHT22;331;48.414;9.938;2022-08-19T01:33:39;20.50;91.00
698;DHT22;331;48.414;9.938;2022-08-19T01:36:07;20.50;91.10
698;DHT22;331;48.414;9.938;2022-08-19T01:38:35;20.50;91.10
698;DHT22;331;48.414;9.938;2022-08-19T01:41:04;20.50;91.00
698;DHT22;331;48.414;9.938;2022-08-19T01:43:31;20.50;91.00
698;DHT22;331;48.414;9.938;2022-08-19T01:45:58;20.40;90.90
698;DHT22;331;48.414;9.938;2022-08-19T01:48:26;20.40;90.90
698;DHT22;331;48.414;9.938;2022-08-19T01:50:55;20.50;91.00
698;DHT22;331;48.414;9.938;2022-08-19T01:53:22;20.40;91.00
698;DHT22;331;48.414;9.938;2022-08-19T01:55:49;20.40;91.00
698;DHT22;331;48.414;9.938;2022-08-19T01:58:18;20.40;91.10
698;DHT22;331;48.414;9.938;2022-08-19T02:00:46;20.40;91.10
698;DHT22;331;48.414;9.938;2022-08-19T02:03:13;20.40;91.10
698;DHT22;331;48.414;9.938;2022-08-19T02:05:40;20.30;91.00
698;DHT22;331;48.414;9.938;2022-08-19T02:08:07;20.30;91.00
698;DHT22;331;48.414;9.938;2022-08-19T02:10:37;20.30;91.20
698;DHT22;331;48.414;9.938;2022-08-19T02:13:04;20.30;91.30
698;DHT22;331;48.414;9.938;2022-08-19T02:15:33;20.30;91.30
698;DHT22;331;48.414;9.938;2022-08-19T02:18:00;20.30;91.40
698;DHT22;331;48.414;9.938;2022-08-19T02:20:27;20.20;91.30
698;DHT22;331;48.414;9.938;2022-08-19T02:22:54;20.20;91.30
698;DHT22;331;48.414;9.938;2022-08-19T02:25:21;20.20;91.30
698;DHT22;331;48.414;9.938;2022-08-19T02:27:47;20.20;91.60
698;DHT22;331;48.414;9.938;2022-08-19T02:30:16;20.20;91.20
698;DHT22;331;48.414;9.938;2022-08-19T02:32:44;20.20;91.20
698;DHT22;331;48.414;9.938;2022-08-19T02:35:11;20.20;91.30
698;DHT22;331;48.414;9.938;2022-08-19T02:37:38;20.10;91.30
698;DHT22;331;48.414;9.938;2022-08-19T02:40:22;20.10;91.20
698;DHT22;331;48.414;9.938;2022-08-19T02:42:49;20.10;91.20
698;DHT22;331;48.414;9.938;2022-08-19T02:45:16;20.10;91.30
698;DHT22;331;48.414;9.938;2022-08-19T02:47:44;20.10;91.30
698;DHT22;331;48.414;9.938;2022-08-19T02:50:11;20.10;91.40
698;DHT22;331;48.414;9.938;2022-08-19T02:52:39;20.10;91.30
698;DHT22;331;48.414;9.938;2022-08-19T02:55:06;20.00;91.30
698;DHT22;331;48.414;9.938;2022-08-19T02:57:33;20.00;91.30
698;DHT22;331;48.414;9.938;2022-08-19T03:00:03;20.00;91.30
698;DHT22;331;48.414;9.938;2022-08-19T03:02:30;20.00;91.20
698;DHT22;331;48.414;9.938;2022-08-19T03:04:58;20.00;91.20
698;DHT22;331;48.414;9.938;2022-08-19T03:07:25;20.00;91.30
698;DHT22;331;48.414;9.938;2022-08-19T03:09:52;20.00;91.30
698;DHT22;331;48.414;9.938;2022-08-19T03:12:19;19.90;91.40
698;DHT22;331;48.414;9.938;2022-08-19T03:14:46;20.00;91.50
698;DHT22;331;48.414;9.938;2022-08-19T03:17:13;19.90;91.40
698;DHT22;331;48.414;9.938;2022-08-19T03:19:39;19.90;91.40
698;DHT22;331;48.414;9.938;2022-08-19T03:22:08;19.90;91.40
698;DHT22;331;48.414;9.938;2022-08-19T03:24:34;19.90;91.40
698;DHT22;331;48.414;9.938;2022-08-19T03:27:01;19.90;91.40
698;DHT22;331;48.414;9.938;2022-08-19T03:29:31;19.80;91.30
698;DHT22;331;48.414;9.938;2022-08-19T03:31:58;19.90;91.40
698;DHT22;331;48.414;9.938;2022-08-19T03:34:26;19.80;91.40
698;DHT22;331;48.414;9.938;2022-08-19T03:36:54;19.80;91.40
698;DHT22;331;48.414;9.938;2022-08-19T03:39:22;19.80;91.40
698;DHT22;331;48.414;9.938;2022-08-19T03:41:50;19.80;91.40
698;DHT22;331;48.414;9.938;2022-08-19T03:44:18;19.80;91.50
698;DHT22;331;48.414;9.938;2022-08-19T03:46:46;19.80;91.50
698;DHT22;331;48.414;9.938;2022-08-19T03:49:13;19.80;91.50
698;DHT22;331;48.414;9.938;2022-08-19T03:51:41;19.80;91.50
698;DHT22;331;48.414;9.938;2022-08-19T03:54:09;19.70;91.50
698;DHT22;331;48.414;9.938;2022-08-19T03:56:38;19.70;91.50
698;DHT22;331;48.414;9.938;2022-08-19T03:59:06;19.70;91.50
698;DHT22;331;48.414;9.938;2022-08-19T04:01:34;19.70;91.50
698;DHT22;331;48.414;9.938;2022-08-19T04:04:01;19.70;91.60
698;DHT22;331;48.414;9.938;2022-08-19T04:06:29;19.70;91.50
698;DHT22;331;48.414;9.938;2022-08-19T04:08:57;19.70;91.50
698;DHT22;331;48.414;9.938;2022-08-19T04:11:24;19.60;91.50
698;DHT22;331;48.414;9.938;2022-08-19T04:13:53;19.60;91.60
698;DHT22;331;48.414;9.938;2022-08-19T04:16:21;19.60;91.60
698;DHT22;331;48.414;9.938;2022-08-19T04:18:48;19.60;91.50
698;DHT22;331;48.414;9.938;2022-08-19T04:21:17;19.60;91.60
698;DHT22;331;48.414;9.938;2022-08-19T04:23:44;19.60;91.60
698;DHT22;331;48.414;9.938;2022-08-19T04:26:12;19.60;91.60
698;DHT22;331;48.414;9.938;2022-08-19T04:28:39;19.60;91.60
698;DHT22;331;48.414;9.938;2022-08-19T04:31:11;19.60;91.60
698;DHT22;331;48.414;9.938;2022-08-19T04:33:39;19.60;91.70
698;DHT22;331;48.414;9.938;2022-08-19T04:36:06;19.60;91.60
698;DHT22;331;48.414;9.938;2022-08-19T04:38:33;19.50;91.60
698;DHT22;331;48.414;9.938;2022-08-19T04:41:02;19.60;91.70
698;DHT22;331;48.414;9.938;2022-08-19T04:43:46;19.50;91.50
698;DHT22;331;48.414;9.938;2022-08-19T04:46:15;19.50;91.50
698;DHT22;331;48.414;9.938;2022-08-19T04:48:42;19.50;91.50
698;DHT22;331;48.414;9.938;2022-08-19T04:51:10;19.50;91.50
698;DHT22;331;48.414;9.938;2022-08-19T04:53:39;19.50;91.50
698;DHT22;331;48.414;9.938;2022-08-19T04:56:07;19.50;91.50
698;DHT22;331;48.414;9.938;2022-08-19T04:58:35;19.50;91.50
698;DHT22;331;48.414;9.938;2022-08-19T05:01:02;19.50;91.50
698;DHT22;331;48.414;9.938;2022-08-19T05:03:30;19.40;91.50
698;DHT22;331;48.414;9.938;2022-08-19T05:05:59;19.40;91.40
698;DHT22;331;48.414;9.938;2022-08-19T05:08:30;19.40;91.40
698;DHT22;331;48.414;9.938;2022-08-19T05:10:56;19.40;91.50
698;DHT22;331;48.414;9.938;2022-08-19T05:13:23;19.40;91.50
698;DHT22;331;48.414;9.938;2022-08-19T05:15:53;19.40;91.50
698;DHT22;331;48.414;9.938;2022-08-19T05:18:20;19.40;91.50
698;DHT22;331;48.414;9.938;2022-08-19T05:21:07;19.40;91.50
698;DHT22;331;48.414;9.938;2022-08-19T05:23:51;19.40;91.50
698;DHT22;331;48.414;9.938;2022-08-19T05:26:18;19.40;91.50
698;DHT22;331;48.414;9.938;2022-08-19T05:28:45;19.30;91.80
698;DHT22;331;48.414;9.938;2022-08-19T05:31:12;19.40;91.50
698;DHT22;331;48.414;9.938;2022-08-19T05:33:39;19.30;91.50
698;DHT22;331;48.414;9.938;2022-08-19T05:36:07;19.30;91.50
698;DHT22;331;48.414;9.938;2022-08-19T05:38:34;19.30;91.50
698;DHT22;331;48.414;9.938;2022-08-19T05:41:05;19.30;91.50
698;DHT22;331;48.414;9.938;2022-08-19T05:43:33;19.30;91.40
698;DHT22;331;48.414;9.938;2022-08-19T05:46:01;19.30;91.60
698;DHT22;331;48.414;9.938;2022-08-19T05:48:30;19.30;91.70
698;DHT22;331;48.414;9.938;2022-08-19T05:50:57;19.30;91.70
698;DHT22;331;48.414;9.938;2022-08-19T05:53:25;19.30;91.60
698;DHT22;331;48.414;9.938;2022-08-19T05:55:52;19.30;91.60
698;DHT22;331;48.414;9.938;2022-08-19T05:58:19;19.30;91.60
698;DHT22;331;48.414;9.938;2022-08-19T06:00:45;19.30;91.60
698;DHT22;331;48.414;9.938;2022-08-19T06:03:12;19.30;91.90
698;DHT22;331;48.414;9.938;2022-08-19T06:05:40;19.30;91.60
698;DHT22;331;48.414;9.938;2022-08-19T06:08:06;19.20;91.60
698;DHT22;331;48.414;9.938;2022-08-19T06:10:35;19.20;91.60
698;DHT22;331;48.414;9.938;2022-08-19T06:13:02;19.20;91.60
698;DHT22;331;48.414;9.938;2022-08-19T06:15:31;19.20;91.60
698;DHT22;331;48.414;9.938;2022-08-19T06:17:57;19.20;91.60
698;DHT22;331;48.414;9.938;2022-08-19T06:20:25;19.20;91.60
698;DHT22;331;48.414;9.938;2022-08-19T06:22:51;19.20;91.60
698;DHT22;331;48.414;9.938;2022-08-19T06:25:19;19.20;91.60
698;DHT22;331;48.414;9.938;2022-08-19T06:27:47;19.20;91.70
698;DHT22;331;48.414;9.938;2022-08-19T06:30:14;19.10;91.70
698;DHT22;331;48.414;9.938;2022-08-19T06:32:41;19.10;91.70
698;DHT22;331;48.414;9.938;2022-08-19T06:35:08;19.10;91.70
698;DHT22;331;48.414;9.938;2022-08-19T06:37:35;19.20;91.90
698;DHT22;331;48.414;9.938;2022-08-19T06:40:03;19.20;91.80
698;DHT22;331;48.414;9.938;2022-08-19T06:42:30;19.20;91.90
698;DHT22;331;48.414;9.938;2022-08-19T06:44:58;19.10;91.90
698;DHT22;331;48.414;9.938;2022-08-19T06:47:28;19.20;91.90
698;DHT22;331;48.414;9.938;2022-08-19T06:49:56;19.10;91.90
698;DHT22;331;48.414;9.938;2022-08-19T06:52:25;19.10;92.10
698;DHT22;331;48.414;9.938;2022-08-19T06:54:52;19.10;92.00
698;DHT22;331;48.414;9.938;2022-08-19T06:57:21;19.10;92.10
698;DHT22;331;48.414;9.938;2022-08-19T06:59:48;19.10;92.00
698;DHT22;331;48.414;9.938;2022-08-19T07:02:17;19.10;92.00
698;DHT22;331;48.414;9.938;2022-08-19T07:04:44;19.10;92.00
698;DHT22;331;48.414;9.938;2022-08-19T07:07:12;19.10;92.10
698;DHT22;331;48.414;9.938;2022-08-19T07:09:40;19.10;92.10
698;DHT22;331;48.414;9.938;2022-08-19T07:12:09;19.10;92.10
698;DHT22;331;48.414;9.938;2022-08-19T07:14:36;19.00;92.10
698;DHT22;331;48.414;9.938;2022-08-19T07:17:04;19.00;92.10
698;DHT22;331;48.414;9.938;2022-08-19T07:19:33;19.00;92.20
698;DHT22;331;48.414;9.938;2022-08-19T07:22:01;19.00;92.20
698;DHT22;331;48.414;9.938;2022-08-19T07:24:28;19.00;92.20
698;DHT22;331;48.414;9.938;2022-08-19T07:26:57;19.00;92.40
698;DHT22;331;48.414;9.938;2022-08-19T07:29:28;19.00;92.60
698;DHT22;331;48.414;9.938;2022-08-19T07:31:56;19.00;92.60
698;DHT22;331;48.414;9.938;2022-08-19T07:34:24;19.00;92.80
698;DHT22;331;48.414;9.938;2022-08-19T07:36:53;19.00;92.70
698;DHT22;331;48.414;9.938;2022-08-19T07:39:22;19.00;92.60
698;DHT22;331;48.414;9.938;2022-08-19T07:41:49;19.00;92.70
698;DHT22;331;48.414;9.938;2022-08-19T07:44:17;19.00;92.80
698;DHT22;331;48.414;9.938;2022-08-19T07:46:46;19.00;92.90
698;DHT22;331;48.414;9.938;2022-08-19T07:49:15;19.00;93.00
698;DHT22;331;48.414;9.938;2022-08-19T07:51:45;19.00;93.10
698;DHT22;331;48.414;9.938;2022-08-19T07:54:13;19.00;93.20
698;DHT22;331;48.414;9.938;2022-08-19T07:56:40;19.00;93.10
698;DHT22;331;48.414;9.938;2022-08-19T07:59:07;19.00;93.40
698;DHT22;331;48.414;9.938;2022-08-19T08:01:34;19.00;93.20
698;DHT22;331;48.414;9.938;2022-08-19T08:04:01;18.90;93.10
698;DHT22;331;48.414;9.938;2022-08-19T08:06:46;18.90;93.00
698;DHT22;331;48.414;9.938;2022-08-19T08:09:33;18.90;93.10
698;DHT22;331;48.414;9.938;2022-08-19T08:12:01;19.00;93.20
698;DHT22;331;48.414;9.938;2022-08-19T08:14:31;18.90;93.00
698;DHT22;331;48.414;9.938;2022-08-19T08:16:58;18.90;93.00
698;DHT22;331;48.414;9.938;2022-08-19T08:19:26;18.90;92.90
698;DHT22;331;48.414;9.938;2022-08-19T08:21:54;18.90;93.10
698;DHT22;331;48.414;9.938;2022-08-19T08:24:21;18.90;93.10
698;DHT22;331;48.414;9.938;2022-08-19T08:26:49;18.90;93.30
698;DHT22;331;48.414;9.938;2022-08-19T08:29:16;18.90;93.30
698;DHT22;331;48.414;9.938;2022-08-19T08:31:45;18.90;93.30
698;DHT22;331;48.414;9.938;2022-08-19T08:34:12;18.90;93.40
698;DHT22;331;48.414;9.938;2022-08-19T08:36:40;18.90;93.50
698;DHT22;331;48.414;9.938;2022-08-19T08:39:08;18.80;93.60
698;DHT22;331;48.414;9.938;2022-08-19T08:41:38;18.80;93.60
698;DHT22;331;48.414;9.938;2022-08-19T08:44:11;18.80;93.70
698;DHT22;331;48.414;9.938;2022-08-19T08:46:41;18.80;93.80
698;DHT22;331;48.414;9.938;2022-08-19T08:49:14;18.80;93.70
698;DHT22;331;48.414;9.938;2022-08-19T08:51:46;18.80;93.70
698;DHT22;331;48.414;9.938;2022-08-19T08:54:15;18.80;93.60
698;DHT22;331;48.414;9.938;2022-08-19T08:56:44;18.80;93.60
698;DHT22;331;48.414;9.938;2022-08-19T08:59:15;18.80;93.60
698;DHT22;331;48.414;9.938;2022-08-19T09:01:43;18.80;93.50
698;DHT22;331;48.414;9.938;2022-08-19T09:04:10;18.80;93.60
698;DHT22;331;48.414;9.938;2022-08-19T09:06:40;18.80;93.80
698;DHT22;331;48.414;9.938;2022-08-19T09:09:12;18.80;94.00
698;DHT22;331;48.414;9.938;2022-08-19T09:11:47;18.80;94.00
698;DHT22;331;48.414;9.938;2022-08-19T09:14:19;18.80;94.30
698;DHT22;331;48.414;9.938;2022-08-19T09:16:49;18.80;93.90
698;DHT22;331;48.414;9.938;2022-08-19T09:19:17;18.70;94.00
698;DHT22;331;48.414;9.938;2022-08-19T09:21:44;18.70;94.10
698;DHT22;331;48.414;9.938;2022-08-19T09:24:11;18.80;94.10
698;DHT22;331;48.414;9.938;2022-08-19T09:26:38;18.70;94.40
698;DHT22;331;48.414;9.938;2022-08-19T09:29:05;18.70;94.30
698;DHT22;331;48.414;9.938;2022-08-19T09:31:34;18.70;94.40
698;DHT22;331;48.414;9.938;2022-08-19T09:34:01;18.70;94.40
698;DHT22;331;48.414;9.938;2022-08-19T09:36:29;18.70;94.50
698;DHT22;331;48.414;9.938;2022-08-19T09:38:58;18.70;94.60
698;DHT22;331;48.414;9.938;2022-08-19T09:41:26;18.70;94.80
698;DHT22;331;48.414;9.938;2022-08-19T09:43:53;18.70;94.80
698;DHT22;331;48.414;9.938;2022-08-19T09:46:21;18.60;94.90
698;DHT22;331;48.414;9.938;2022-08-19T09:48:50;18.70;95.00
698;DHT22;331;48.414;9.938;2022-08-19T09:51:18;18.70;95.00
698;DHT22;331;48.414;9.938;2022-08-19T09:53:46;18.60;95.00
698;DHT22;331;48.414;9.938;2022-08-19T09:56:15;18.60;95.00
698;DHT22;331;48.414;9.938;2022-08-19T09:58:42;18.70;95.10
698;DHT22;331;48.414;9.938;2022-08-19T10:01:15;18.60;95.10
698;DHT22;331;48.414;9.938;2022-08-19T10:03:41;18.60;95.50
698;DHT22;331;48.414;9.938;2022-08-19T10:06:10;18.60;95.10
698;DHT22;331;48.414;9.938;2022-08-19T10:08:37;18.70;95.30
698;DHT22;331;48.414;9.938;2022-08-19T10:11:05;18.70;95.30
698;DHT22;331;48.414;9.938;2022-08-19T10:13:32;18.70;95.10
698;DHT22;331;48.414;9.938;2022-08-19T10:16:03;18.70;95.10
698;DHT22;331;48.414;9.938;2022-08-19T10:18:30;18.70;95.20
698;DHT22;331;48.414;9.938;2022-08-19T10:21:03;18.70;95.20
698;DHT22;331;48.414;9.938;2022-08-19T10:23:34;18.70;95.20
698;DHT22;331;48.414;9.938;2022-08-19T10:26:02;18.70;95.40
698;DHT22;331;48.414;9.938;2022-08-19T10:28:32;18.70;95.30
698;DHT22;331;48.414;9.938;2022-08-19T10:31:02;18.70;95.30
698;DHT22;331;48.414;9.938;2022-08-19T10:33:29;18.70;95.30
698;DHT22;331;48.414;9.938;2022-08-19T10:35:58;18.70;95.20
698;DHT22;331;48.414;9.938;2022-08-19T10:38:25;18.70;95.30
698;DHT22;331;48.414;9.938;2022-08-19T10:40:53;18.70;95.40
698;DHT22;331;48.414;9.938;2022-08-19T10:43:20;18.70;95.40
698;DHT22;331;48.414;9.938;2022-08-19T10:45:50;18.60;95.30
698;DHT22;331;48.414;9.938;2022-08-19T10:48:18;18.70;95.30
698;DHT22;331;48.414;9.938;2022-08-19T10:50:44;18.70;95.20
698;DHT22;331;48.414;9.938;2022-08-19T10:53:37;18.70;95.20
698;DHT22;331;48.414;9.938;2022-08-19T10:56:05;18.70;95.20
698;DHT22;331;48.414;9.938;2022-08-19T10:58:50;18.70;95.20
698;DHT22;331;48.414;9.938;2022-08-19T11:01:17;18.70;95.20
698;DHT22;331;48.414;9.938;2022-08-19T11:03:44;18.70;95.20
698;DHT22;331;48.414;9.938;2022-08-19T11:06:11;18.70;95.30
698;DHT22;331;48.414;9.938;2022-08-19T11:08:38;18.70;95.60
698;DHT22;331;48.414;9.938;2022-08-19T11:11:07;18.70;95.60
698;DHT22;331;48.414;9.938;2022-08-19T11:13:35;18.70;95.80
698;DHT22;331;48.414;9.938;2022-08-19T11:16:03;18.70;95.90
698;DHT22;331;48.414;9.938;2022-08-19T11:18:31;18.70;95.80
698;DHT22;331;48.414;9.938;2022-08-19T11:21:04;18.70;95.70
698;DHT22;331;48.414;9.938;2022-08-19T11:23:32;18.70;95.60
698;DHT22;331;48.414;9.938;2022-08-19T11:25:59;18.70;95.60
698;DHT22;331;48.414;9.938;2022-08-19T11:28:27;18.70;95.60
698;DHT22;331;48.414;9.938;2022-08-19T11:30:54;18.70;95.70
698;DHT22;331;48.414;9.938;2022-08-19T11:33:21;18.70;95.70
698;DHT22;331;48.414;9.938;2022-08-19T11:35:48;18.70;95.70
698;DHT22;331;48.414;9.938;2022-08-19T11:38:15;18.70;95.90
698;DHT22;331;48.414;9.938;2022-08-19T11:40:43;18.70;95.90
698;DHT22;331;48.414;9.938;2022-08-19T11:43:10;18.70;96.00
698;DHT22;331;48.414;9.938;2022-08-19T11:45:38;18.70;96.00
698;DHT22;331;48.414;9.938;2022-08-19T11:48:05;18.70;96.00
698;DHT22;331;48.414;9.938;2022-08-19T11:50:32;18.70;96.10
698;DHT22;331;48.414;9.938;2022-08-19T11:52:59;18.70;96.10
698;DHT22;331;48.414;9.938;2022-08-19T11:55:26;18.70;96.10
698;DHT22;331;48.414;9.938;2022-08-19T11:57:53;18.70;96.20
698;DHT22;331;48.414;9.938;2022-08-19T12:00:20;18.70;96.10
698;DHT22;331;48.414;9.938;2022-08-19T12:02:48;18.70;96.00
698;DHT22;331;48.414;9.938;2022-08-19T12:05:15;18.70;96.10
698;DHT22;331;48.414;9.938;2022-08-19T12:07:42;18.70;96.20
698;DHT22;331;48.414;9.938;2022-08-19T12:10:09;18.70;96.40
698;DHT22;331;48.414;9.938;2022-08-19T12:12:36;18.70;96.40
698;DHT22;331;48.414;9.938;2022-08-19T12:15:08;18.70;96.40
698;DHT22;331;48.414;9.938;2022-08-19T12:17:36;18.70;96.30
698;DHT22;331;48.414;9.938;2022-08-19T12:20:05;18.60;96.20
698;DHT22;331;48.414;9.938;2022-08-19T12:22:32;18.70;96.20
698;DHT22;331;48.414;9.938;2022-08-19T12:25:00;18.70;96.40
698;DHT22;331;48.414;9.938;2022-08-19T12:27:27;18.70;96.30
698;DHT22;331;48.414;9.938;2022-08-19T12:29:54;18.70;96.30
698;DHT22;331;48.414;9.938;2022-08-19T12:32:20;18.70;96.30
698;DHT22;331;48.414;9.938;2022-08-19T12:34:47;18.60;96.40
698;DHT22;331;48.414;9.938;2022-08-19T12:37:15;18.70;96.60
698;DHT22;331;48.414;9.938;2022-08-19T12:39:43;18.60;96.70
698;DHT22;331;48.414;9.938;2022-08-19T12:42:10;18.70;96.80
698;DHT22;331;48.414;9.938;2022-08-19T12:44:38;18.60;96.80
698;DHT22;331;48.414;9.938;2022-08-19T12:47:05;18.60;96.80
698;DHT22;331;48.414;9.938;2022-08-19T12:49:32;18.70;96.80
698;DHT22;331;48.414;9.938;2022-08-19T12:51:59;18.60;96.70
698;DHT22;331;48.414;9.938;2022-08-19T12:54:28;18.70;96.80
698;DHT22;331;48.414;9.938;2022-08-19T12:56:56;18.70;96.70
698;DHT22;331;48.414;9.938;2022-08-19T12:59:22;18.70;96.80
698;DHT22;331;48.414;9.938;2022-08-19T13:01:49;18.60;96.90
698;DHT22;331;48.414;9.938;2022-08-19T13:04:16;18.70;97.00
698;DHT22;331;48.414;9.938;2022-08-19T13:06:43;18.60;96.80
698;DHT22;331;48.414;9.938;2022-08-19T13:09:10;18.60;97.00
698;DHT22;331;48.414;9.938;2022-08-19T13:11:38;18.60;97.00
698;DHT22;331;48.414;9.938;2022-08-19T13:14:05;18.60;96.90
698;DHT22;331;48.414;9.938;2022-08-19T13:16:32;18.60;96.90
698;DHT22;331;48.414;9.938;2022-08-19T13:18:58;18.70;97.10
698;DHT22;331;48.414;9.938;2022-08-19T13:21:28;18.70;97.20
698;DHT22;331;48.414;9.938;2022-08-19T13:23:55;18.60;97.10
698;DHT22;331;48.414;9.938;2022-08-19T13:26:22;18.70;97.20
698;DHT22;331;48.414;9.938;2022-08-19T13:28:50;18.70;97.10
698;DHT22;331;48.414;9.938;2022-08-19T13:31:35;18.60;96.90
698;DHT22;331;48.414;9.938;2022-08-19T13:34:26;18.60;96.80
698;DHT22;331;48.414;9.938;2022-08-19T13:36:53;18.60;96.80
698;DHT22;331;48.414;9.938;2022-08-19T13:39:20;18.60;96.70
698;DHT22;331;48.414;9.938;2022-08-19T13:41:48;18.70;96.80
698;DHT22;331;48.414;9.938;2022-08-19T13:44:16;18.60;96.80
698;DHT22;331;48.414;9.938;2022-08-19T13:46:44;18.60;96.80
698;DHT22;331;48.414;9.938;2022-08-19T13:49:11;18.60;96.80
698;DHT22;331;48.414;9.938;2022-08-19T13:51:40;18.60;96.90
698;DHT22;331;48.414;9.938;2022-08-19T13:54:07;18.70;97.00
698;DHT22;331;48.414;9.938;2022-08-19T13:56:35;18.60;97.10
698;DHT22;331;48.414;9.938;2022-08-19T13:59:05;18.60;97.10
698;DHT22;331;48.414;9.938;2022-08-19T14:01:34;18.60;97.10
698;DHT22;331;48.414;9.938;2022-08-19T14:04:00;18.60;97.10
698;DHT22;331;48.414;9.938;2022-08-19T14:06:27;18.60;97.10
698;DHT22;331;48.414;9.938;2022-08-19T14:08:54;18.70;97.10
698;DHT22;331;48.414;9.938;2022-08-19T14:11:21;18.60;97.10
698;DHT22;331;48.414;9.938;2022-08-19T14:13:48;18.60;97.20
698;DHT22;331;48.414;9.938;2022-08-19T14:16:15;18.70;97.40
698;DHT22;331;48.414;9.938;2022-08-19T14:18:43;18.70;97.40
698;DHT22;331;48.414;9.938;2022-08-19T14:21:14;18.70;97.60
698;DHT22;331;48.414;9.938;2022-08-19T14:23:42;18.60;97.60
698;DHT22;331;48.414;9.938;2022-08-19T14:26:09;18.70;97.60
698;DHT22;331;48.414;9.938;2022-08-19T14:28:37;18.60;97.50
698;DHT22;331;48.414;9.938;2022-08-19T14:31:06;18.60;97.50
698;DHT22;331;48.414;9.938;2022-08-19T14:33:33;18.70;97.50
698;DHT22;331;48.414;9.938;2022-08-19T14:36:01;18.70;97.40
698;DHT22;331;48.414;9.938;2022-08-19T14:38:28;18.60;97.30
698;DHT22;331;48.414;9.938;2022-08-19T14:41:05;18.60;97.30
698;DHT22;331;48.414;9.938;2022-08-19T14:43:33;18.60;97.30
698;DHT22;331;48.414;9.938;2022-08-19T14:46:00;18.60;97.30
698;DHT22;331;48.414;9.938;2022-08-19T14:48:27;18.60;97.20
698;DHT22;331;48.414;9.938;2022-08-19T14:50:53;18.60;97.30
698;DHT22;331;48.414;9.938;2022-08-19T14:53:22;18.60;97.30
698;DHT22;331;48.414;9.938;2022-08-19T14:55:49;18.60;97.30
698;DHT22;331;48.414;9.938;2022-08-19T14:58:16;18.70;97.30
698;DHT22;331;48.414;9.938;2022-08-19T15:00:42;18.60;97.30
698;DHT22;331;48.414;9.938;2022-08-19T15:03:09;18.60;97.30
698;DHT22;331;48.414;9.938;2022-08-19T15:05:38;18.60;97.30
698;DHT22;331;48.414;9.938;2022-08-19T15:08:05;18.60;97.30
698;DHT22;331;48.414;9.938;2022-08-19T15:10:33;18.60;97.30
698;DHT22;331;48.414;9.938;2022-08-19T15:13:00;18.60;97.40
698;DHT22;331;48.414;9.938;2022-08-19T15:15:27;18.60;97.30
698;DHT22;331;48.414;9.938;2022-08-19T15:17:54;18.60;97.30
698;DHT22;331;48.414;9.938;2022-08-19T15:20:27;18.60;97.40
698;DHT22;331;48.414;9.938;2022-08-19T15:22:54;18.60;97.40
698;DHT22;331;48.414;9.938;2022-08-19T15:25:21;18.60;97.30
698;DHT22;331;48.414;9.938;2022-08-19T15:27:49;18.60;97.30
698;DHT22;331;48.414;9.938;2022-08-19T15:30:19;18.60;97.30
698;DHT22;331;48.414;9.938;2022-08-19T15:32:46;18.60;97.20
698;DHT22;331;48.414;9.938;2022-08-19T15:35:13;18.60;97.20
698;DHT22;331;48.414;9.938;2022-08-19T15:37:40;18.60;97.20
698;DHT22;331;48.414;9.938;2022-08-19T15:40:08;18.60;97.20
698;DHT22;331;48.414;9.938;2022-08-19T15:42:36;18.60;97.20
698;DHT22;331;48.414;9.938;2022-08-19T15:45:04;18.60;97.20
698;DHT22;331;48.414;9.938;2022-08-19T15:47:31;18.60;97.10
698;DHT22;331;48.414;9.938;2022-08-19T15:49:58;18.60;97.10
698;DHT22;331;48.414;9.938;2022-08-19T15:52:25;18.60;97.10
698;DHT22;331;48.414;9.938;2022-08-19T15:54:52;18.60;97.10
698;DHT22;331;48.414;9.938;2022-08-19T15:57:19;18.60;97.10
698;DHT22;331;48.414;9.938;2022-08-19T16:00:06;18.60;97.10
698;DHT22;331;48.414;9.938;2022-08-19T16:02:50;18.60;97.00
698;DHT22;331;48.414;9.938;2022-08-19T16:05:34;18.60;97.00
698;DHT22;331;48.414;9.938;2022-08-19T16:08:18;18.60;97.00
698;DHT22;331;48.414;9.938;2022-08-19T16:10:45;18.60;97.00
698;DHT22;331;48.414;9.938;2022-08-19T16:13:12;18.60;97.00
698;DHT22;331;48.414;9.938;2022-08-19T16:15:40;18.60;97.00
698;DHT22;331;48.414;9.938;2022-08-19T16:18:07;18.60;97.00
698;DHT22;331;48.414;9.938;2022-08-19T16:20:34;18.60;97.00
698;DHT22;331;48.414;9.938;2022-08-19T16:23:01;18.60;97.00
698;DHT22;331;48.414;9.938;2022-08-19T16:25:29;18.60;96.90
698;DHT22;331;48.414;9.938;2022-08-19T16:27:56;18.60;96.90
698;DHT22;331;48.414;9.938;2022-08-19T16:30:23;18.60;96.90
698;DHT22;331;48.414;9.938;2022-08-19T16:32:52;18.60;96.90
698;DHT22;331;48.414;9.938;2022-08-19T16:35:19;18.60;96.90
698;DHT22;331;48.414;9.938;2022-08-19T16:37:46;18.60;96.90
698;DHT22;331;48.414;9.938;2022-08-19T16:40:13;18.50;96.80
698;DHT22;331;48.414;9.938;2022-08-19T16:42:40;18.60;96.90